Time;durP1;ratioP1;P1;durP2;ratioP2;P2;SDS_P1;SDS_P2;PMS_P1;PMS_P2;Temp;Humidity;BMP_temperature;BMP_pressure;BME280_temperature;BME280_humidity;BME280_pressure;Samples;Min_cycle;Max_cycle;Signal;HPM_P1;HPM_P2
2023/07/12 00:02:03;;;;;;;11.27;2.90;;;;;;;;;;5014311;28;20983;-76
2023/07/12 00:04:30;;;;;;;5.40;3.03;;;;;;;;;;5014202;28;20458;-76
2023/07/12 00:06:58;;;;;;;5.80;2.90;;;;;;;;;;5014033;28;20462;-76
2023/07/12 00:09:25;;;;;;;4.70;3.20;;;;;;;;;;5014102;28;20822;-76
2023/07/12 00:11:53;;;;;;;6.50;2.87;;;;;;;;;;5014043;28;20481;-76
2023/07/12 00:14:20;;;;;;;6.20;2.50;;;;;;;;;;5013772;28;20493;-76
2023/07/12 00:16:47;;;;;;;7.17;3.30;;;;;;;;;;5014010;28;20459;-76
2023/07/12 00:19:16;;;;;;;5.90;2.73;;;;;;;;;;5013994;28;20506;-76
2023/07/12 00:21:43;;;;;;;4.90;3.77;;;;;;;;;;5013812;28;20478;-76
2023/07/12 00:24:11;;;;;;;6.60;2.60;;;;;;;;;;5013755;28;20458;-76
2023/07/12 00:26:38;;;;;;;5.27;2.93;;;;;;;;;;5013769;28;20462;-76
2023/07/12 00:29:08;;;;;;;4.20;2.97;;;;;;;;;;5013778;28;20465;-76
2023/07/12 00:31:35;;;;;;;4.13;2.60;;;;;;;;;;5013727;28;20870;-76
2023/07/12 00:34:02;;;;;;;5.87;2.90;;;;;;;;;;5013835;28;20457;-76
2023/07/12 00:36:30;;;;;;;5.97;3.30;;;;;;;;;;5013786;28;20450;-76
2023/07/12 00:38:58;;;;;;;9.57;3.63;;;;;;;;;;5013572;28;20455;-76
2023/07/12 00:41:29;;;;;;;8.87;2.63;;;;;;;;;;5013573;28;20476;-76
2023/07/12 00:43:57;;;;;;;5.53;3.30;;;;;;;;;;5013732;28;20458;-76
2023/07/12 00:46:30;;;;;;;4.53;3.17;;;;;;;;;;5013655;28;20446;-76
2023/07/12 00:48:57;;;;;;;4.63;2.83;;;;;;;;;;5013135;28;20455;-75
2023/07/12 00:51:29;;;;;;;5.70;2.93;;;;;;;;;;5013353;28;20486;-75
2023/07/12 00:53:57;;;;;;;6.90;2.80;;;;;;;;;;5013643;28;20936;-75
2023/07/12 00:56:24;;;;;;;10.63;4.07;;;;;;;;;;5013398;28;20498;-75
2023/07/12 00:58:53;;;;;;;8.10;3.43;;;;;;;;;;5013352;28;20462;-75
2023/07/12 01:01:21;;;;;;;4.60;2.37;;;;;;;;;;5013766;28;21011;-75
2023/07/12 01:03:50;;;;;;;4.97;4.20;;;;;;;;;;5013549;28;20867;-75
2023/07/12 01:06:19;;;;;;;10.07;3.07;;;;;;;;;;5013332;28;20459;-75
2023/07/12 01:08:46;;;;;;;4.90;3.00;;;;;;;;;;5013195;28;20447;-75
2023/07/12 01:11:16;;;;;;;4.07;2.87;;;;;;;;;;5013464;28;20474;-75
2023/07/12 01:13:43;;;;;;;5.90;3.23;;;;;;;;;;5012840;28;20454;-75
2023/07/12 01:16:12;;;;;;;5.43;3.10;;;;;;;;;;5013130;28;20504;-75
2023/07/12 01:18:39;;;;;;;6.37;3.30;;;;;;;;;;5012986;28;20465;-75
2023/07/12 01:21:09;;;;;;;3.60;2.57;;;;;;;;;;5013219;28;20485;-75
2023/07/12 01:23:38;;;;;;;8.87;3.37;;;;;;;;;;5013058;28;20477;-75
2023/07/12 01:26:16;;;;;;;5.53;3.10;;;;;;;;;;5013320;28;20454;-75
2023/07/12 01:28:43;;;;;;;5.40;2.97;;;;;;;;;;5012926;28;20465;-75
2023/07/12 01:31:10;;;;;;;6.50;3.17;;;;;;;;;;5013101;28;20470;-75
2023/07/12 01:33:38;;;;;;;6.93;3.43;;;;;;;;;;5013054;28;20467;-75
2023/07/12 01:36:05;;;;;;;4.50;3.77;;;;;;;;;;5013143;28;21011;-75
2023/07/12 01:38:33;;;;;;;5.00;3.57;;;;;;;;;;5012861;28;20833;-75
2023/07/12 01:41:01;;;;;;;3.70;2.93;;;;;;;;;;5013024;28;20516;-75
2023/07/12 01:43:28;;;;;;;8.00;4.17;;;;;;;;;;5012828;28;20473;-75
2023/07/12 01:45:55;;;;;;;6.60;3.90;;;;;;;;;;5013103;28;20474;-75
2023/07/12 01:48:22;;;;;;;8.83;3.90;;;;;;;;;;5012649;28;20455;-75
2023/07/12 01:50:49;;;;;;;7.73;4.20;;;;;;;;;;5013095;28;21018;-75
2023/07/12 01:53:16;;;;;;;10.40;4.00;;;;;;;;;;5013051;28;20458;-75
2023/07/12 01:55:45;;;;;;;17.20;3.67;;;;;;;;;;5012854;28;20493;-75
2023/07/12 01:58:12;;;;;;;5.10;3.70;;;;;;;;;;5012682;28;20833;-75
2023/07/12 02:06:46;;;;;;;4.77;3.43;;;;;;;;;;5016355;28;20414;-75
2023/07/12 02:09:13;;;;;;;10.33;3.60;;;;;;;;;;5016492;28;20455;-75
2023/07/12 02:11:42;;;;;;;4.93;3.77;;;;;;;;;;5016249;28;20482;-75
2023/07/12 02:14:09;;;;;;;10.80;4.30;;;;;;;;;;5015916;28;20457;-75
2023/07/12 02:16:36;;;;;;;5.97;4.87;;;;;;;;;;5016232;28;20901;-75
2023/07/12 02:19:03;;;;;;;5.23;3.63;;;;;;;;;;5016113;28;20458;-75
2023/07/12 02:21:30;;;;;;;6.93;3.90;;;;;;;;;;5016004;28;20482;-75
2023/07/12 02:23:57;;;;;;;12.90;4.43;;;;;;;;;;5016135;28;20497;-75
2023/07/12 02:26:24;;;;;;;6.93;4.63;;;;;;;;;;5016037;28;20446;-75
2023/07/12 02:28:53;;;;;;;4.70;3.93;;;;;;;;;;5016026;28;20458;-75
2023/07/12 02:31:20;;;;;;;4.20;3.63;;;;;;;;;;5015853;28;20482;-75
2023/07/12 02:33:48;;;;;;;7.83;4.00;;;;;;;;;;5016105;28;20868;-75
2023/07/12 02:36:15;;;;;;;5.43;3.73;;;;;;;;;;5015843;28;20526;-75
2023/07/12 02:38:42;;;;;;;8.73;3.67;;;;;;;;;;5015758;28;20462;-75
2023/07/12 02:41:10;;;;;;;10.03;5.07;;;;;;;;;;5015781;28;20475;-75
2023/07/12 02:43:37;;;;;;;6.33;3.80;;;;;;;;;;5015855;28;21010;-75
2023/07/12 02:46:05;;;;;;;3.97;3.37;;;;;;;;;;5015922;28;20862;-75
2023/07/12 02:48:32;;;;;;;5.00;3.53;;;;;;;;;;5015511;28;20455;-75
2023/07/12 02:50:59;;;;;;;5.00;4.07;;;;;;;;;;5015699;28;20477;-75
2023/07/12 02:53:28;;;;;;;3.90;3.60;;;;;;;;;;5015495;28;20459;-75
2023/07/12 02:55:55;;;;;;;8.93;3.77;;;;;;;;;;5015535;28;20982;-75
2023/07/12 02:58:22;;;;;;;6.83;4.40;;;;;;;;;;5015199;28;20470;-75
2023/07/12 03:00:49;;;;;;;7.00;4.20;;;;;;;;;;5015438;28;20485;-75
2023/07/12 03:03:18;;;;;;;7.43;4.10;;;;;;;;;;5015387;28;20460;-75
2023/07/12 03:05:45;;;;;;;7.77;4.57;;;;;;;;;;5015304;28;20477;-75
2023/07/12 03:08:12;;;;;;;5.90;4.70;;;;;;;;;;5015156;28;20454;-75
2023/07/12 03:10:39;;;;;;;14.10;5.70;;;;;;;;;;5015138;28;20471;-75
2023/07/12 03:13:06;;;;;;;5.47;4.27;;;;;;;;;;5014258;28;20458;-75
2023/07/12 03:15:38;;;;;;;4.80;3.60;;;;;;;;;;5015198;28;20491;-75
2023/07/12 03:18:05;;;;;;;7.23;4.20;;;;;;;;;;5015272;28;20533;-75
2023/07/12 03:20:35;;;;;;;9.00;6.10;;;;;;;;;;5014960;28;20995;-75
2023/07/12 03:23:02;;;;;;;9.77;4.80;;;;;;;;;;5015094;28;20473;-75
2023/07/12 03:25:29;;;;;;;5.50;3.93;;;;;;;;;;5015080;28;20450;-75
2023/07/12 03:27:56;;;;;;;5.70;3.67;;;;;;;;;;5014769;28;20446;-75
2023/07/12 03:30:23;;;;;;;9.00;3.97;;;;;;;;;;5014769;28;20879;-75
2023/07/12 03:32:50;;;;;;;5.73;4.07;;;;;;;;;;5014330;28;20458;-75
2023/07/12 03:35:17;;;;;;;8.70;3.90;;;;;;;;;;5014231;28;20497;-75
2023/07/12 03:37:46;;;;;;;7.57;4.20;;;;;;;;;;5013926;28;20459;-75
2023/07/12 03:40:13;;;;;;;5.47;4.70;;;;;;;;;;5014266;28;20489;-75
2023/07/12 03:42:40;;;;;;;6.70;4.33;;;;;;;;;;5013830;28;20466;-75
2023/07/12 03:45:08;;;;;;;6.07;4.67;;;;;;;;;;5014004;28;20477;-75
2023/07/12 03:47:35;;;;;;;4.50;4.07;;;;;;;;;;5013763;28;20553;-75
2023/07/12 03:50:02;;;;;;;5.27;4.10;;;;;;;;;;5013950;28;20457;-75
2023/07/12 03:52:29;;;;;;;8.03;4.30;;;;;;;;;;5013788;28;20466;-75
2023/07/12 03:54:57;;;;;;;9.37;4.27;;;;;;;;;;5013836;28;20855;-75
2023/07/12 03:57:25;;;;;;;13.50;4.47;;;;;;;;;;5013561;28;20501;-75
2023/07/12 03:59:52;;;;;;;5.83;4.80;;;;;;;;;;5013767;28;20555;-75
2023/07/12 04:02:19;;;;;;;6.40;4.77;;;;;;;;;;5013640;28;20849;-75
2023/07/12 04:04:46;;;;;;;9.20;4.60;;;;;;;;;;5013608;28;20459;-75
2023/07/12 04:07:13;;;;;;;6.53;4.90;;;;;;;;;;5013283;28;20478;-75
2023/07/12 04:09:40;;;;;;;6.83;4.57;;;;;;;;;;5013300;28;20462;-75
2023/07/12 04:12:09;;;;;;;9.23;5.30;;;;;;;;;;5013117;28;20471;-75
2023/07/12 04:14:37;;;;;;;6.30;4.03;;;;;;;;;;5013478;28;20460;-75
2023/07/12 04:17:04;;;;;;;7.20;4.90;;;;;;;;;;5013175;28;21018;-75
2023/07/12 04:19:31;;;;;;;8.27;4.60;;;;;;;;;;5013231;28;20944;-75
2023/07/12 04:21:58;;;;;;;8.40;4.70;;;;;;;;;;5012992;28;20790;-75
2023/07/12 04:24:25;;;;;;;7.67;5.43;;;;;;;;;;5012734;28;20458;-75
2023/07/12 04:26:52;;;;;;;10.90;4.50;;;;;;;;;;5013029;28;20963;-75
2023/07/12 04:29:21;;;;;;;14.83;4.90;;;;;;;;;;5013243;28;20948;-75
2023/07/12 04:31:48;;;;;;;7.97;5.37;;;;;;;;;;5013180;28;20849;-75
2023/07/12 04:34:15;;;;;;;7.43;4.93;;;;;;;;;;5013067;28;20796;-75
2023/07/12 04:36:42;;;;;;;5.87;4.60;;;;;;;;;;5012969;28;20490;-75
2023/07/12 04:39:09;;;;;;;10.17;5.00;;;;;;;;;;5012863;28;20458;-75
2023/07/12 04:41:36;;;;;;;8.80;5.67;;;;;;;;;;5012987;28;20983;-75
2023/07/12 04:44:04;;;;;;;8.77;4.67;;;;;;;;;;5012932;28;20459;-75
2023/07/12 04:46:32;;;;;;;9.57;4.10;;;;;;;;;;5012754;28;20446;-75
2023/07/12 04:48:59;;;;;;;6.87;5.00;;;;;;;;;;5012532;28;20466;-75
2023/07/12 04:51:26;;;;;;;7.67;6.17;;;;;;;;;;5012596;28;20869;-75
2023/07/12 04:53:53;;;;;;;6.10;4.70;;;;;;;;;;5012792;28;20793;-75
2023/07/12 04:56:20;;;;;;;5.53;5.03;;;;;;;;;;5012563;28;20494;-75
2023/07/12 04:58:47;;;;;;;6.73;4.40;;;;;;;;;;5012475;28;20457;-75
2023/07/12 05:01:14;;;;;;;8.67;4.70;;;;;;;;;;5012354;28;20586;-75
2023/07/12 05:03:43;;;;;;;14.00;7.13;;;;;;;;;;5012459;28;20982;-75
2023/07/12 05:06:10;;;;;;;8.10;4.40;;;;;;;;;;5012566;28;20451;-75
2023/07/12 05:08:37;;;;;;;6.90;4.30;;;;;;;;;;5012230;28;20473;-75
2023/07/12 05:11:04;;;;;;;5.97;4.73;;;;;;;;;;5012648;28;20978;-75
2023/07/12 05:13:33;;;;;;;7.90;3.50;;;;;;;;;;5011773;28;20455;-75
2023/07/12 05:16:01;;;;;;;8.43;3.77;;;;;;;;;;5012462;28;20580;-75
2023/07/12 05:18:28;;;;;;;8.20;3.87;;;;;;;;;;5012044;28;20469;-75
2023/07/12 05:20:57;;;;;;;7.43;4.13;;;;;;;;;;5012505;28;20566;-75
2023/07/12 05:23:24;;;;;;;8.37;4.33;;;;;;;;;;5012005;28;20994;-75
2023/07/12 05:25:51;;;;;;;3.80;3.40;;;;;;;;;;5012260;28;20455;-75
2023/07/12 05:28:18;;;;;;;5.10;3.80;;;;;;;;;;5011980;28;20494;-75
2023/07/12 05:30:45;;;;;;;7.63;4.60;;;;;;;;;;5012103;28;20998;-75
2023/07/12 05:33:13;;;;;;;6.60;4.17;;;;;;;;;;5012128;28;20944;-75
2023/07/12 05:35:40;;;;;;;11.33;4.93;;;;;;;;;;5013259;28;20454;-75
2023/07/12 05:38:08;;;;;;;8.20;5.50;;;;;;;;;;5016116;28;20479;-75
2023/07/12 05:40:35;;;;;;;10.00;5.63;;;;;;;;;;5015911;28;20477;-75
2023/07/12 05:43:02;;;;;;;6.47;4.33;;;;;;;;;;5016163;28;20510;-75
2023/07/12 05:45:30;;;;;;;10.60;5.73;;;;;;;;;;5015866;28;20450;-75
2023/07/12 05:47:57;;;;;;;6.00;4.50;;;;;;;;;;5015753;28;20447;-75
2023/07/12 05:50:25;;;;;;;6.20;5.10;;;;;;;;;;5015798;28;20475;-76
2023/07/12 05:52:52;;;;;;;9.97;5.27;;;;;;;;;;5016181;28;20458;-76
2023/07/12 05:55:21;;;;;;;8.70;4.20;;;;;;;;;;5015701;28;20450;-76
2023/07/12 05:57:48;;;;;;;5.53;3.77;;;;;;;;;;5015549;28;20486;-76
2023/07/12 06:00:16;;;;;;;4.63;3.93;;;;;;;;;;5015767;28;20995;-76
2023/07/12 06:02:43;;;;;;;5.30;4.73;;;;;;;;;;5015843;28;20557;-76
2023/07/12 06:05:10;;;;;;;4.50;4.10;;;;;;;;;;5015841;28;20454;-76
2023/07/12 06:07:37;;;;;;;6.57;4.87;;;;;;;;;;5027954;28;20489;-76
2023/07/12 06:10:04;;;;;;;7.87;4.27;;;;;;;;;;5035697;28;20477;-76
2023/07/12 06:12:33;;;;;;;7.03;4.60;;;;;;;;;;5034839;28;20922;-76
2023/07/12 06:15:00;;;;;;;6.40;4.13;;;;;;;;;;5035653;28;20453;-76
2023/07/12 06:17:27;;;;;;;9.23;5.00;;;;;;;;;;5035013;28;20493;-76
2023/07/12 06:19:54;;;;;;;7.83;4.03;;;;;;;;;;5035227;28;20933;-76
2023/07/12 06:22:21;;;;;;;5.93;3.97;;;;;;;;;;5035053;28;20970;-76
2023/07/12 06:24:48;;;;;;;6.03;4.13;;;;;;;;;;5035026;28;20472;-76
2023/07/12 06:27:15;;;;;;;9.30;4.13;;;;;;;;;;5035038;28;20458;-76
2023/07/12 06:29:45;;;;;;;5.93;4.73;;;;;;;;;;5034997;28;20454;-75
2023/07/12 06:32:12;;;;;;;4.43;3.70;;;;;;;;;;5025544;28;20510;-75
2023/07/12 06:34:40;;;;;;;5.30;4.23;;;;;;;;;;4994565;28;20462;-74
2023/07/12 06:37:08;;;;;;;7.70;4.53;;;;;;;;;;5013078;28;20492;-74
2023/07/12 06:39:35;;;;;;;7.27;4.70;;;;;;;;;;5011526;28;20896;-74
2023/07/12 06:42:02;;;;;;;5.57;4.37;;;;;;;;;;4993408;28;20961;-74
2023/07/12 06:44:30;;;;;;;5.90;4.17;;;;;;;;;;4993655;28;20465;-74
2023/07/12 06:46:58;;;;;;;9.40;4.80;;;;;;;;;;5029451;28;20446;-74
2023/07/12 06:49:25;;;;;;;16.63;5.50;;;;;;;;;;5032727;28;20824;-75
2023/07/12 06:51:52;;;;;;;6.47;3.80;;;;;;;;;;5033042;28;20493;-75
2023/07/12 06:54:19;;;;;;;6.07;4.10;;;;;;;;;;5032890;28;20450;-74
2023/07/12 06:56:48;;;;;;;11.63;5.47;;;;;;;;;;5032494;28;20512;-75
2023/07/12 06:59:15;;;;;;;5.90;4.67;;;;;;;;;;5032874;28;20836;-76
2023/07/12 07:01:42;;;;;;;15.67;5.40;;;;;;;;;;5032876;28;20493;-75
2023/07/12 07:04:10;;;;;;;5.40;4.50;;;;;;;;;;5033045;28;20799;-75
2023/07/12 07:06:38;;;;;;;8.03;4.70;;;;;;;;;;5032528;28;20460;-75
2023/07/12 07:09:05;;;;;;;5.30;4.53;;;;;;;;;;5033000;28;20891;-75
2023/07/12 07:11:32;;;;;;;6.70;4.60;;;;;;;;;;5032473;28;20561;-76
2023/07/12 07:13:59;;;;;;;12.03;7.87;;;;;;;;;;5032331;28;20461;-76
2023/07/12 07:16:26;;;;;;;8.80;5.00;;;;;;;;;;5032449;28;20464;-76
2023/07/12 07:18:53;;;;;;;7.13;4.30;;;;;;;;;;5032623;28;20556;-76
2023/07/12 07:21:22;;;;;;;7.50;3.77;;;;;;;;;;5032330;28;20484;-76
2023/07/12 07:23:49;;;;;;;6.47;4.10;;;;;;;;;;5032341;28;20604;-76
2023/07/12 07:26:16;;;;;;;7.37;4.20;;;;;;;;;;5032366;28;20534;-76
2023/07/12 07:28:44;;;;;;;5.93;4.30;;;;;;;;;;5032173;28;20457;-76
2023/07/12 07:31:11;;;;;;;6.20;3.70;;;;;;;;;;5032991;28;20970;-75
2023/07/12 07:33:40;;;;;;;6.83;3.57;;;;;;;;;;5033011;28;20480;-76
2023/07/12 07:36:08;;;;;;;3.97;3.40;;;;;;;;;;5033402;28;20465;-75
2023/07/12 07:38:37;;;;;;;9.60;4.40;;;;;;;;;;5033336;28;20497;-75
2023/07/12 07:41:05;;;;;;;6.00;4.87;;;;;;;;;;5033351;28;20484;-75
2023/07/12 07:43:32;;;;;;;5.40;4.47;;;;;;;;;;5033591;28;20560;-75
2023/07/12 07:45:59;;;;;;;18.57;5.30;;;;;;;;;;5033586;28;20966;-75
2023/07/12 07:48:26;;;;;;;5.30;3.23;;;;;;;;;;5033469;28;20831;-75
2023/07/12 07:50:53;;;;;;;7.33;3.67;;;;;;;;;;5033688;28;20469;-74
2023/07/12 07:53:21;;;;;;;5.50;2.90;;;;;;;;;;5033615;28;20453;-74
2023/07/12 07:55:50;;;;;;;10.23;4.00;;;;;;;;;;5033676;28;20454;-74
2023/07/12 07:58:17;;;;;;;5.27;2.70;;;;;;;;;;5033199;28;20492;-75
2023/07/12 08:00:45;;;;;;;4.53;3.27;;;;;;;;;;5033276;28;20869;-74
2023/07/12 08:03:12;;;;;;;4.73;3.07;;;;;;;;;;5033237;28;20458;-74
2023/07/12 08:05:40;;;;;;;4.57;2.93;;;;;;;;;;5033275;28;20461;-74
2023/07/12 08:08:09;;;;;;;4.23;2.93;;;;;;;;;;5033126;28;20873;-74
2023/07/12 08:10:36;;;;;;;4.53;3.33;;;;;;;;;;5033143;28;20473;-74
2023/07/12 08:13:05;;;;;;;4.13;3.40;;;;;;;;;;5032802;28;20480;-74
2023/07/12 08:15:32;;;;;;;6.07;4.33;;;;;;;;;;5032987;28;20950;-74
2023/07/12 08:17:59;;;;;;;4.70;3.40;;;;;;;;;;5033018;28;20486;-74
2023/07/12 08:20:27;;;;;;;6.13;4.40;;;;;;;;;;5032969;28;20474;-74
2023/07/12 08:22:55;;;;;;;4.33;3.77;;;;;;;;;;5033006;28;20505;-74
2023/07/12 08:25:22;;;;;;;3.77;3.00;;;;;;;;;;5032807;28;20529;-74
2023/07/12 08:27:49;;;;;;;7.70;3.40;;;;;;;;;;5032774;28;20453;-74
2023/07/12 08:30:17;;;;;;;13.63;4.33;;;;;;;;;;5032725;28;20974;-74
2023/07/12 08:32:44;;;;;;;5.73;3.07;;;;;;;;;;5033211;28;20457;-74
2023/07/12 08:35:12;;;;;;;5.57;2.70;;;;;;;;;;5032912;28;20809;-74
2023/07/12 08:37:39;;;;;;;8.43;2.53;;;;;;;;;;5032655;28;20500;-74
2023/07/12 08:40:07;;;;;;;4.73;2.90;;;;;;;;;;5032509;28;20460;-74
2023/07/12 08:42:37;;;;;;;3.13;2.83;;;;;;;;;;5032528;28;20450;-74
2023/07/12 08:45:16;;;;;;;5.17;2.60;;;;;;;;;;5032656;28;20457;-74
2023/07/12 08:47:45;;;;;;;15.07;4.40;;;;;;;;;;5032548;28;20446;-74
2023/07/12 08:50:13;;;;;;;5.27;2.60;;;;;;;;;;5032582;28;20485;-74
2023/07/12 08:52:41;;;;;;;3.10;2.43;;;;;;;;;;5032340;28;20485;-74
2023/07/12 08:55:12;;;;;;;6.13;2.67;;;;;;;;;;5032487;28;20481;-74
2023/07/12 08:57:39;;;;;;;5.10;2.80;;;;;;;;;;5032272;28;20492;-74
2023/07/12 09:00:08;;;;;;;4.10;3.00;;;;;;;;;;5032499;28;20442;-74
2023/07/12 09:02:36;;;;;;;6.43;2.57;;;;;;;;;;5032409;28;20458;-74
2023/07/12 09:05:11;;;;;;;7.70;2.70;;;;;;;;;;5032414;28;20453;-74
2023/07/12 09:07:38;;;;;;;9.03;3.50;;;;;;;;;;5032125;28;20445;-74
2023/07/12 09:10:06;;;;;;;5.97;2.50;;;;;;;;;;5031778;28;20947;-74
2023/07/12 09:12:36;;;;;;;14.40;3.43;;;;;;;;;;5031920;28;20489;-75
2023/07/12 09:15:04;;;;;;;3.80;2.20;;;;;;;;;;5032317;28;20477;-75
2023/07/12 09:17:34;;;;;;;5.17;2.33;;;;;;;;;;5031953;28;20512;-75
2023/07/12 09:20:02;;;;;;;3.37;2.73;;;;;;;;;;5032075;28;20492;-75
2023/07/12 09:22:31;;;;;;;4.67;2.43;;;;;;;;;;5031991;28;21123;-75
2023/07/12 09:24:58;;;;;;;5.87;3.27;;;;;;;;;;5032209;28;20849;-74
2023/07/12 09:27:27;;;;;;;3.87;2.67;;;;;;;;;;5031930;28;20452;-74
2023/07/12 09:29:59;;;;;;;3.90;2.97;;;;;;;;;;5032163;28;20965;-74
2023/07/12 09:32:31;;;;;;;3.83;2.63;;;;;;;;;;5031896;28;20496;-74
2023/07/12 09:34:58;;;;;;;4.40;2.20;;;;;;;;;;5032094;28;20454;-74
2023/07/12 09:37:25;;;;;;;8.97;3.13;;;;;;;;;;5031718;28;20520;-74
2023/07/12 09:39:55;;;;;;;7.03;2.37;;;;;;;;;;5032040;28;20456;-74
2023/07/12 09:42:23;;;;;;;3.70;2.30;;;;;;;;;;5032414;28;20957;-74
2023/07/12 09:44:50;;;;;;;3.87;2.33;;;;;;;;;;5032045;28;20886;-74
2023/07/12 09:47:26;;;;;;;4.50;2.40;;;;;;;;;;5031738;28;20453;-74
2023/07/12 09:49:57;;;;;;;3.50;2.37;;;;;;;;;;5032199;28;20937;-74
2023/07/12 09:52:26;;;;;;;2.73;2.07;;;;;;;;;;5031853;28;20464;-74
2023/07/12 09:54:54;;;;;;;2.47;2.10;;;;;;;;;;5031886;28;20457;-74
2023/07/12 09:57:31;;;;;;;2.13;1.80;;;;;;;;;;5031802;28;20493;-76
2023/07/12 09:59:59;;;;;;;4.80;1.90;;;;;;;;;;5032073;28;20444;-74
2023/07/12 10:02:32;;;;;;;2.57;2.10;;;;;;;;;;5031852;28;20953;-76
2023/07/12 10:05:01;;;;;;;3.63;3.03;;;;;;;;;;5032151;28;20468;-76
2023/07/12 10:07:33;;;;;;;2.63;2.00;;;;;;;;;;5032448;28;20525;-76
2023/07/12 10:10:00;;;;;;;3.87;2.67;;;;;;;;;;5032107;28;20461;-75
2023/07/12 10:12:32;;;;;;;2.53;2.00;;;;;;;;;;5032138;28;20827;-74
2023/07/12 10:14:59;;;;;;;2.53;2.33;;;;;;;;;;5032058;28;20449;-74
2023/07/12 10:17:31;;;;;;;4.60;2.50;;;;;;;;;;5031613;28;20505;-75
2023/07/12 10:19:59;;;;;;;3.57;1.90;;;;;;;;;;5032009;28;20852;-74
2023/07/12 10:22:30;;;;;;;3.17;2.60;;;;;;;;;;5032170;28;20500;-74
2023/07/12 10:24:58;;;;;;;6.40;3.00;;;;;;;;;;5035703;28;20507;-75
2023/07/12 10:27:26;;;;;;;3.40;1.90;;;;;;;;;;5035239;28;20463;-75
2023/07/12 10:29:57;;;;;;;5.03;2.47;;;;;;;;;;5035585;28;20559;-75
2023/07/12 10:32:25;;;;;;;2.43;2.00;;;;;;;;;;5035145;28;20437;-75
2023/07/12 10:34:59;;;;;;;3.53;2.03;;;;;;;;;;5035131;28;20453;-75
2023/07/12 10:37:28;;;;;;;3.20;2.17;;;;;;;;;;5035502;28;20446;-75
2023/07/12 10:39:56;;;;;;;3.10;1.70;;;;;;;;;;5034991;28;20461;-76
2023/07/12 10:42:27;;;;;;;3.13;1.83;;;;;;;;;;5035191;28;20453;-76
2023/07/12 10:44:57;;;;;;;7.83;2.83;;;;;;;;;;5035176;28;20545;-76
2023/07/12 10:47:27;;;;;;;2.80;2.50;;;;;;;;;;5034910;28;20457;-75
2023/07/12 10:49:57;;;;;;;3.73;2.17;;;;;;;;;;5034707;28;20449;-75
2023/07/12 10:52:28;;;;;;;3.03;1.70;;;;;;;;;;5035161;28;20453;-74
2023/07/12 10:55:08;;;;;;;3.00;1.70;;;;;;;;;;5035134;28;20783;-75
2023/07/12 10:57:39;;;;;;;6.90;1.90;;;;;;;;;;5034832;28;20437;-74
2023/07/12 11:00:21;;;;;;;3.23;1.90;;;;;;;;;;5034898;28;20465;-77
2023/07/12 11:02:50;;;;;;;1.70;1.60;;;;;;;;;;5035045;28;20809;-74
2023/07/12 11:05:36;;;;;;;2.40;1.80;;;;;;;;;;5034756;28;20454;-75
2023/07/12 11:08:04;;;;;;;2.70;1.60;;;;;;;;;;5034547;28;20445;-76
2023/07/12 11:10:36;;;;;;;2.67;2.10;;;;;;;;;;5034285;28;20477;-77
2023/07/12 11:13:11;;;;;;;3.50;1.90;;;;;;;;;;5034917;28;20441;-73
2023/07/12 11:15:51;;;;;;;5.40;2.83;;;;;;;;;;5034301;28;20973;-74
2023/07/12 11:18:26;;;;;;;3.77;1.80;;;;;;;;;;5034094;28;20492;-74
2023/07/12 11:21:01;;;;;;;3.50;2.17;;;;;;;;;;5034073;28;20465;-74
2023/07/12 11:23:29;;;;;;;2.53;2.10;;;;;;;;;;5033745;28;20465;-74
2023/07/12 11:26:01;;;;;;;3.10;2.30;;;;;;;;;;5034053;28;21029;-74
2023/07/12 11:28:30;;;;;;;4.83;2.30;;;;;;;;;;5033843;28;20442;-75
2023/07/12 11:31:16;;;;;;;2.10;1.90;;;;;;;;;;5033873;28;20462;-77
2023/07/12 11:33:47;;;;;;;3.67;2.90;;;;;;;;;;5033731;28;20541;-75
2023/07/12 11:36:18;;;;;;;3.80;2.60;;;;;;;;;;5033932;28;20450;-74
2023/07/12 11:38:46;;;;;;;3.20;2.40;;;;;;;;;;5033708;28;20497;-75
2023/07/12 11:41:16;;;;;;;2.30;2.00;;;;;;;;;;5033803;28;20475;-75
2023/07/12 11:43:43;;;;;;;5.60;2.00;;;;;;;;;;5033790;28;20464;-74
2023/07/12 11:46:15;;;;;;;2.00;1.80;;;;;;;;;;5033817;28;20454;-74
2023/07/12 11:48:43;;;;;;;3.90;2.20;;;;;;;;;;5033544;28;20454;-74
2023/07/12 11:51:19;;;;;;;3.40;2.10;;;;;;;;;;5033368;28;20469;-74
2023/07/12 11:53:54;;;;;;;4.63;2.00;;;;;;;;;;5033649;28;20461;-74
2023/07/12 11:56:21;;;;;;;2.20;1.60;;;;;;;;;;5033444;28;20895;-74
2023/07/12 11:58:48;;;;;;;2.27;1.87;;;;;;;;;;5033230;28;20603;-74
2023/07/12 12:01:17;;;;;;;2.37;2.03;;;;;;;;;;5033316;28;20485;-75
2023/07/12 12:03:44;;;;;;;2.60;1.90;;;;;;;;;;5033404;28;20981;-76
2023/07/12 12:06:13;;;;;;;2.60;1.60;;;;;;;;;;5033251;28;20456;-75
2023/07/12 12:08:43;;;;;;;5.20;2.43;;;;;;;;;;5032986;28;20461;-76
2023/07/12 12:11:11;;;;;;;3.00;1.80;;;;;;;;;;5033179;28;20528;-76
2023/07/12 12:13:41;;;;;;;1.93;1.60;;;;;;;;;;5032615;28;20523;-74
2023/07/12 12:16:18;;;;;;;2.60;2.40;;;;;;;;;;5033123;28;20438;-75
2023/07/12 12:18:51;;;;;;;1.90;1.60;;;;;;;;;;5032832;28;20892;-74
2023/07/12 12:21:19;;;;;;;2.27;2.00;;;;;;;;;;5032982;28;20993;-74
2023/07/12 12:23:52;;;;;;;2.17;1.97;;;;;;;;;;5032835;28;20922;-77
2023/07/12 12:26:20;;;;;;;2.43;1.63;;;;;;;;;;5033061;28;20462;-74
2023/07/12 12:28:51;;;;;;;2.13;1.93;;;;;;;;;;5032726;28;20449;-74
2023/07/12 12:31:19;;;;;;;2.63;1.97;;;;;;;;;;5032808;28;20501;-75
2023/07/12 12:33:47;;;;;;;2.60;2.10;;;;;;;;;;5032615;28;20542;-75
2023/07/12 12:36:20;;;;;;;4.40;2.33;;;;;;;;;;5032662;28;20468;-75
2023/07/12 12:38:56;;;;;;;4.83;2.63;;;;;;;;;;5032750;28;20496;-75
2023/07/12 12:41:25;;;;;;;4.03;2.20;;;;;;;;;;5033037;28;20834;-75
2023/07/12 12:43:56;;;;;;;2.70;1.93;;;;;;;;;;5033067;28;20446;-77
2023/07/12 12:46:23;;;;;;;3.50;2.10;;;;;;;;;;5032443;28;21016;-77
2023/07/12 12:48:51;;;;;;;4.97;2.40;;;;;;;;;;5033018;28;20457;-77
2023/07/12 12:51:19;;;;;;;3.33;2.00;;;;;;;;;;5032945;28;20547;-76
2023/07/12 12:53:46;;;;;;;2.83;2.10;;;;;;;;;;5032569;28;20529;-77
2023/07/12 12:56:13;;;;;;;7.10;2.43;;;;;;;;;;5032989;28;20853;-77
2023/07/12 12:58:42;;;;;;;4.13;1.90;;;;;;;;;;5032570;28;20481;-76
2023/07/12 13:01:10;;;;;;;3.87;2.43;;;;;;;;;;5032859;28;20484;-77
2023/07/12 13:03:38;;;;;;;3.73;2.47;;;;;;;;;;5032659;28;20450;-77
2023/07/12 13:06:06;;;;;;;4.90;2.80;;;;;;;;;;5033354;28;20466;-77
2023/07/12 13:08:34;;;;;;;3.57;2.17;;;;;;;;;;5033666;28;20820;-77
2023/07/12 13:11:04;;;;;;;3.00;2.53;;;;;;;;;;5033097;28;20481;-76
2023/07/12 13:13:31;;;;;;;2.70;2.40;;;;;;;;;;5033743;28;20461;-77
2023/07/12 13:15:59;;;;;;;2.40;2.00;;;;;;;;;;5032740;28;20442;-77
2023/07/12 13:18:26;;;;;;;4.17;2.57;;;;;;;;;;5032235;28;20491;-76
2023/07/12 13:20:55;;;;;;;4.67;2.27;;;;;;;;;;5032629;28;20492;-77
2023/07/12 13:23:24;;;;;;;3.33;2.30;;;;;;;;;;5032420;28;20458;-76
2023/07/12 13:25:51;;;;;;;2.50;2.27;;;;;;;;;;5032463;28;20485;-77
2023/07/12 13:28:20;;;;;;;4.20;2.80;;;;;;;;;;5032959;28;20557;-76
2023/07/12 13:30:47;;;;;;;3.60;2.63;;;;;;;;;;5032067;28;21026;-76
2023/07/12 13:33:16;;;;;;;3.60;2.57;;;;;;;;;;5032478;28;20474;-77
2023/07/12 13:35:44;;;;;;;3.53;2.87;;;;;;;;;;5032491;28;20453;-77
2023/07/12 13:38:12;;;;;;;6.57;2.30;;;;;;;;;;5032388;28;20911;-77
2023/07/12 13:40:40;;;;;;;3.97;2.73;;;;;;;;;;5032871;28;20517;-76
2023/07/12 13:43:11;;;;;;;5.43;2.83;;;;;;;;;;5032453;28;20531;-76
2023/07/12 13:45:38;;;;;;;2.67;2.40;;;;;;;;;;5032465;28;20449;-76
2023/07/12 13:48:11;;;;;;;6.13;2.60;;;;;;;;;;5032451;28;20449;-77
2023/07/12 13:50:39;;;;;;;5.03;3.13;;;;;;;;;;5032412;28;21000;-76
2023/07/12 13:53:08;;;;;;;3.83;2.90;;;;;;;;;;5032109;28;20959;-77
2023/07/12 13:55:35;;;;;;;10.73;3.27;;;;;;;;;;5032367;28;20461;-77
2023/07/12 13:58:06;;;;;;;6.33;4.50;;;;;;;;;;5036058;28;20461;-77
2023/07/12 14:00:34;;;;;;;4.57;2.70;;;;;;;;;;5037051;28;20536;-76
2023/07/12 14:03:02;;;;;;;6.73;4.40;;;;;;;;;;5037368;28;20441;-75
2023/07/12 14:05:29;;;;;;;4.47;2.47;;;;;;;;;;5036562;28;20463;-76
2023/07/12 14:07:59;;;;;;;4.23;2.60;;;;;;;;;;5036060;28;20869;-77
2023/07/12 14:10:26;;;;;;;4.40;2.53;;;;;;;;;;5035554;28;20542;-76
2023/07/12 14:12:54;;;;;;;4.73;2.80;;;;;;;;;;5035934;28;20950;-77
2023/07/12 14:15:22;;;;;;;8.00;3.60;;;;;;;;;;5035820;28;20445;-76
2023/07/12 14:17:49;;;;;;;7.77;3.77;;;;;;;;;;5035742;28;20457;-76
2023/07/12 14:20:16;;;;;;;5.43;3.53;;;;;;;;;;5035517;28;20603;-76
2023/07/12 14:22:44;;;;;;;4.40;3.70;;;;;;;;;;5035434;28;20473;-76
2023/07/12 14:25:17;;;;;;;6.20;3.70;;;;;;;;;;5035481;28;20511;-76
2023/07/12 14:27:44;;;;;;;5.93;3.43;;;;;;;;;;5035636;28;20461;-76
2023/07/12 14:30:12;;;;;;;5.03;3.80;;;;;;;;;;5035968;28;20962;-76
2023/07/12 14:32:40;;;;;;;5.13;3.87;;;;;;;;;;5035527;28;20938;-76
2023/07/12 14:35:08;;;;;;;5.27;4.20;;;;;;;;;;5035438;28;20511;-76
2023/07/12 14:37:36;;;;;;;6.63;4.40;;;;;;;;;;5035218;28;20966;-76
2023/07/12 14:40:04;;;;;;;4.97;3.40;;;;;;;;;;5035344;28;20967;-76
2023/07/12 14:42:34;;;;;;;7.23;3.87;;;;;;;;;;5035099;28;20568;-76
2023/07/12 14:45:01;;;;;;;7.50;4.10;;;;;;;;;;5035100;28;20522;-76
2023/07/12 14:47:28;;;;;;;5.67;3.53;;;;;;;;;;5034671;28;20466;-76
2023/07/12 14:49:56;;;;;;;3.77;3.43;;;;;;;;;;5034731;28;20457;-76
2023/07/12 14:52:25;;;;;;;9.07;4.00;;;;;;;;;;5035034;28;20469;-76
2023/07/12 14:54:53;;;;;;;7.33;3.50;;;;;;;;;;5035045;28;20459;-77
2023/07/12 14:57:20;;;;;;;8.83;4.20;;;;;;;;;;5034846;28;20465;-76